Terminal Aerodrome Forecast
Issued by NWS Jacksonville, FL

Home | Current Version | Previous Version | Text Only | Print | Product List | Glossary On
Versions: 1 2 3 4 5 6 7 8 9 10 11 12 13 14 15 16
971
FTUS42 KJAX 112323
TAFSSI
TAF
KSSI 112323Z 1200/1224 18008KT P6SM SKC
     FM120700 22006KT 6SM BR SCT007 BKN025
     FM120900 23005KT 4SM BR BKN007 OVC015
     FM121400 23010KT P6SM BKN015 BKN250
     FM121600 24010G18KT P6SM SCT030 BKN250=

USA.gov is the U.S. government's official web portal to all federal, state and local government web resources and services.